Time;durP1;ratioP1;P1;durP2;ratioP2;P2;SDS_P1;SDS_P2;PMS_P1;PMS_P2;Temp;Humidity;BMP_temperature;BMP_pressure;BME280_temperature;BME280_humidity;BME280_pressure;Samples;Min_cycle;Max_cycle;Signal;HPM_P1;HPM_P2
2023/06/09 00:00:38;;;;;;;1.40;1.40;;;;;;;13.08;100.00;90793.91;5092543;28;20538;-65
2023/06/09 00:03:05;;;;;;;1.02;1.02;;;;;;;13.07;100.00;90791.56;5092433;28;20418;-65
2023/06/09 00:05:32;;;;;;;1.77;1.67;;;;;;;13.09;100.00;90789.34;5092746;28;20073;-65
2023/06/09 00:07:58;;;;;;;2.40;1.52;;;;;;;13.06;100.00;90801.47;5092627;28;20044;-64
2023/06/09 00:10:24;;;;;;;1.05;1.05;;;;;;;13.04;100.00;90800.22;5090921;28;20417;-65
2023/06/09 00:12:50;;;;;;;1.50;1.40;;;;;;;12.97;100.00;90789.31;5092243;28;20047;-65
2023/06/09 00:15:16;;;;;;;1.67;1.20;;;;;;;12.93;100.00;90796.38;5090922;28;20048;-64
2023/06/09 00:17:41;;;;;;;1.38;1.20;;;;;;;12.89;100.00;90806.94;5091859;28;20156;-65
2023/06/09 00:20:08;;;;;;;1.70;1.63;;;;;;;12.84;100.00;90810.59;5092057;28;20046;-64
2023/06/09 00:22:34;;;;;;;1.30;1.30;;;;;;;12.78;100.00;90811.91;5091603;28;20177;-65
2023/06/09 00:25:00;;;;;;;1.45;1.35;;;;;;;12.74;100.00;90800.28;5092239;28;20097;-65
2023/06/09 00:27:26;;;;;;;1.30;1.20;;;;;;;12.63;100.00;90795.66;5091956;28;20044;-65
2023/06/09 00:29:51;;;;;;;2.67;1.65;;;;;;;12.52;100.00;90806.72;5091885;28;20531;-65
2023/06/09 00:32:17;;;;;;;1.20;1.20;;;;;;;12.50;100.00;90800.13;5092052;28;20040;-65
2023/06/09 00:34:43;;;;;;;1.75;1.65;;;;;;;12.42;100.00;90803.63;5091796;28;20067;-65
2023/06/09 00:37:09;;;;;;;1.27;1.17;;;;;;;12.29;100.00;90800.06;5091661;28;20043;-65
2023/06/09 00:39:34;;;;;;;0.95;0.95;;;;;;;12.22;100.00;90794.47;5091776;28;20106;-65
2023/06/09 00:42:00;;;;;;;1.25;1.25;;;;;;;12.18;100.00;90801.56;5091668;28;20099;-65
2023/06/09 00:44:25;;;;;;;0.98;0.98;;;;;;;12.13;100.00;90805.16;5091617;28;20528;-65
2023/06/09 00:46:51;;;;;;;1.05;1.05;;;;;;;12.12;100.00;90797.47;5090213;28;20042;-65
2023/06/09 00:49:18;;;;;;;1.30;1.30;;;;;;;12.05;100.00;90798.00;5091584;28;20116;-64
2023/06/09 00:51:44;;;;;;;1.00;1.00;;;;;;;12.08;100.00;90794.69;5091571;28;20052;-64
2023/06/09 00:54:10;;;;;;;1.17;1.17;;;;;;;12.14;100.00;90787.28;5091421;28;20036;-65
2023/06/09 00:56:36;;;;;;;0.88;0.88;;;;;;;12.06;100.00;90791.56;5091382;28;20036;-65
2023/06/09 00:59:02;;;;;;;1.27;1.27;;;;;;;11.99;100.00;90797.41;5091352;28;20043;-65
2023/06/09 01:01:32;;;;;;;1.30;1.30;;;;;;;11.93;100.00;90782.66;5091446;28;20048;-64
2023/06/09 01:03:59;;;;;;;1.30;1.23;;;;;;;11.93;100.00;90787.22;5091292;28;20111;-65
2023/06/09 01:06:38;;;;;;;1.42;1.33;;;;;;;11.91;100.00;90778.75;5091571;28;20039;-65
2023/06/09 01:09:24;;;;;;;0.80;0.80;;;;;;;11.76;100.00;90776.59;5091557;28;20066;-65
2023/06/09 01:11:53;;;;;;;0.90;0.90;;;;;;;11.70;100.00;90784.75;5091495;28;20038;-64
2023/06/09 01:14:46;;;;;;;1.35;1.25;;;;;;;11.66;100.00;90778.47;5091132;28;20043;-65
2023/06/09 01:17:18;;;;;;;1.00;1.00;;;;;;;11.61;100.00;90781.31;5083343;28;20051;-65
2023/06/09 01:19:54;;;;;;;1.70;1.60;;;;;;;11.57;100.00;90776.97;5091141;28;20767;-64
2023/06/09 01:22:44;;;;;;;1.00;1.00;;;;;;;11.52;100.00;90777.09;5091258;28;20110;-65
2023/06/09 01:25:25;;;;;;;0.80;0.80;;;;;;;11.48;100.00;90782.28;5090895;28;20111;-65
2023/06/09 01:27:51;;;;;;;0.98;0.98;;;;;;;11.60;100.00;90779.75;5091241;28;20054;-65
2023/06/09 01:30:18;;;;;;;1.20;1.20;;;;;;;11.59;100.00;90775.53;5091052;28;20070;-65
2023/06/09 01:32:45;;;;;;;1.42;1.40;;;;;;;11.61;100.00;90781.31;5091793;28;20024;-64
2023/06/09 01:35:11;;;;;;;1.02;1.02;;;;;;;11.62;100.00;90772.22;5095268;28;20043;-65
2023/06/09 01:37:37;;;;;;;1.00;1.00;;;;;;;11.65;100.00;90771.59;5095100;28;20378;-65
2023/06/09 01:40:04;;;;;;;1.25;1.15;;;;;;;11.69;100.00;90772.53;5095146;28;20096;-65
2023/06/09 01:42:29;;;;;;;1.35;1.30;;;;;;;11.62;100.00;90768.78;5095053;28;20520;-65
2023/06/09 01:44:54;;;;;;;1.00;1.00;;;;;;;11.53;100.00;90779.47;5095319;28;20024;-65
2023/06/09 01:47:21;;;;;;;3.47;2.60;;;;;;;11.52;100.00;90771.78;5094883;28;20024;-66
2023/06/09 01:50:02;;;;;;;1.15;1.15;;;;;;;11.51;100.00;90776.31;5095029;28;20024;-65
2023/06/09 01:52:42;;;;;;;1.50;1.40;;;;;;;11.46;100.00;90779.16;5094447;28;20036;-65
2023/06/09 01:55:14;;;;;;;1.20;1.20;;;;;;;11.37;100.00;90767.78;5094889;28;20113;-65
2023/06/09 01:58:08;;;;;;;1.35;1.10;;;;;;;11.24;100.00;90768.72;5094737;28;20024;-64
2023/06/09 02:00:33;;;;;;;1.08;1.08;;;;;;;11.15;100.00;90773.28;5094900;28;20188;-64
2023/06/09 02:03:00;;;;;;;1.08;1.02;;;;;;;11.12;100.00;90779.22;5094719;28;20502;-65
2023/06/09 02:05:28;;;;;;;0.98;0.98;;;;;;;11.06;100.00;90766.09;5094568;28;20024;-64
2023/06/09 02:07:54;;;;;;;0.90;0.90;;;;;;;11.17;100.00;90776.41;5094683;28;20085;-65
2023/06/09 02:10:21;;;;;;;0.93;0.93;;;;;;;11.15;100.00;90767.94;5094638;28;20036;-66
2023/06/09 02:12:46;;;;;;;1.23;1.23;;;;;;;11.06;100.00;90766.09;5094667;28;20031;-65
2023/06/09 02:15:12;;;;;;;1.65;1.55;;;;;;;11.04;100.00;90778.13;5094620;28;20456;-64
2023/06/09 02:17:39;;;;;;;1.55;1.45;;;;;;;11.05;100.00;90775.19;5094159;28;20048;-65
2023/06/09 02:20:08;;;;;;;1.63;1.52;;;;;;;11.03;100.00;90782.66;5094548;28;20501;-65
2023/06/09 02:22:35;;;;;;;2.92;1.95;;;;;;;11.04;100.00;90784.22;5094575;28;20031;-65
2023/06/09 02:25:01;;;;;;;0.95;0.95;;;;;;;10.97;100.00;90785.81;5094362;28;20474;-65
2023/06/09 02:27:27;;;;;;;1.70;1.60;;;;;;;10.91;100.00;90779.09;5094543;28;20127;-65
2023/06/09 02:29:52;;;;;;;2.95;1.35;;;;;;;10.93;100.00;90791.00;5094398;28;20031;-65
2023/06/09 02:32:17;;;;;;;4.03;1.55;;;;;;;10.87;100.00;90791.44;5094266;28;20031;-65
2023/06/09 02:34:45;;;;;;;1.10;1.10;;;;;;;10.86;100.00;90788.00;5094263;28;20028;-65
2023/06/09 02:37:10;;;;;;;1.55;1.45;;;;;;;10.83;100.00;90787.84;5094091;28;20067;-64
2023/06/09 02:39:36;;;;;;;1.10;1.10;;;;;;;10.73;100.00;90781.75;5094054;28;20562;-65
2023/06/09 02:42:01;;;;;;;1.80;1.70;;;;;;;10.67;100.00;90784.88;5094413;28;20103;-65
2023/06/09 02:44:28;;;;;;;1.30;1.23;;;;;;;10.74;100.00;90796.63;5093341;28;20481;-65
2023/06/09 02:46:54;;;;;;;0.80;0.80;;;;;;;10.62;100.00;90785.81;5093933;28;20028;-65
2023/06/09 02:49:19;;;;;;;2.75;2.55;;;;;;;10.55;100.00;90793.44;5094003;28;20039;-64
2023/06/09 02:51:45;;;;;;;0.93;0.93;;;;;;;10.54;100.00;90791.88;5093869;28;20036;-65
2023/06/09 02:54:10;;;;;;;0.95;0.95;;;;;;;10.53;100.00;90800.19;5094161;28;20024;-64
2023/06/09 02:56:35;;;;;;;0.95;0.95;;;;;;;10.49;100.00;90790.16;5093611;28;20541;-65
2023/06/09 02:59:02;;;;;;;0.90;0.90;;;;;;;10.47;100.00;90792.34;5093740;28;20024;-64
2023/06/09 03:01:28;;;;;;;2.08;1.85;;;;;;;10.40;100.00;90792.00;5093580;28;20024;-65
2023/06/09 03:03:53;;;;;;;1.52;1.42;;;;;;;10.40;100.00;90791.22;5093534;28;20149;-65
2023/06/09 03:06:20;;;;;;;1.00;1.00;;;;;;;10.38;100.00;90793.41;5093372;28;20110;-65
2023/06/09 03:08:45;;;;;;;0.80;0.80;;;;;;;10.33;100.00;90793.56;5093566;28;20052;-64
2023/06/09 03:11:11;;;;;;;1.20;1.15;;;;;;;10.39;100.00;90795.00;5093303;28;20524;-64
2023/06/09 03:13:36;;;;;;;1.10;1.10;;;;;;;10.41;100.00;90788.28;5093115;28;20020;-64
2023/06/09 03:16:03;;;;;;;1.33;1.33;;;;;;;10.47;100.00;90795.00;5092890;28;20075;-65
2023/06/09 03:18:28;;;;;;;1.00;1.00;;;;;;;10.51;100.00;90789.84;5093291;28;20030;-64
2023/06/09 03:20:55;;;;;;;3.60;3.38;;;;;;;10.61;100.00;90780.81;5093287;28;20112;-64
2023/06/09 03:23:21;;;;;;;0.90;0.90;;;;;;;10.57;100.00;90785.94;5093234;28;20024;-64
2023/06/09 03:25:51;;;;;;;0.80;0.80;;;;;;;10.57;100.00;90769.97;5092990;28;20028;-64
2023/06/09 03:28:17;;;;;;;1.00;1.00;;;;;;;10.53;100.00;90778.91;5092694;28;20171;-64
2023/06/09 03:30:43;;;;;;;1.70;1.48;;;;;;;10.51;100.00;90776.56;5092773;28;20023;-65
2023/06/09 03:33:08;;;;;;;0.80;0.80;;;;;;;10.58;100.00;90778.78;5092868;28;20109;-64
2023/06/09 03:35:34;;;;;;;1.65;1.13;;;;;;;10.71;100.00;90780.47;5093034;28;20060;-64
2023/06/09 03:37:59;;;;;;;0.98;0.98;;;;;;;10.83;100.00;90780.66;5210143;22;20061;-67
2023/06/09 03:40:24;;;;;;;2.22;1.45;;;;;;;11.00;100.00;90790.50;5052575;28;20551;-67
2023/06/09 03:42:50;;;;;;;0.80;0.80;;;;;;;11.14;100.00;90782.34;5052654;28;20029;-66
2023/06/09 03:45:15;;;;;;;0.80;0.80;;;;;;;11.33;100.00;90772.13;5052106;28;20051;-63
2023/06/09 03:47:41;;;;;;;1.23;1.13;;;;;;;11.42;100.00;90772.13;5052317;28;20040;-64
2023/06/09 03:50:07;;;;;;;1.13;1.02;;;;;;;11.48;100.00;90776.97;5049033;28;20111;-64
2023/06/09 03:52:32;;;;;;;4.22;2.67;;;;;;;11.51;100.00;90779.00;5052343;28;20063;-64
2023/06/09 03:54:58;;;;;;;0.80;0.80;;;;;;;11.46;100.00;90779.16;5046510;28;20103;-62
2023/06/09 03:57:23;;;;;;;1.10;1.10;;;;;;;11.44;100.00;90786.69;5031123;28;20048;-64
2023/06/09 03:59:49;;;;;;;22.40;1.67;;;;;;;11.47;100.00;90787.94;5032192;28;20079;-64
2023/06/09 04:02:14;;;;;;;1.75;1.65;;;;;;;11.64;100.00;90787.91;5032239;28;20113;-64
2023/06/09 04:04:39;;;;;;;1.20;1.17;;;;;;;11.87;100.00;90785.84;5032273;28;20022;-64
2023/06/09 04:07:05;;;;;;;0.80;0.80;;;;;;;11.90;100.00;90787.84;5032167;28;20491;-65
2023/06/09 04:09:33;;;;;;;2.28;2.00;;;;;;;11.93;100.00;90788.00;5032298;28;20026;-65
2023/06/09 04:11:59;;;;;;;0.95;0.95;;;;;;;11.87;100.00;90789.28;5032329;28;20087;-64
2023/06/09 04:14:25;;;;;;;1.63;1.52;;;;;;;11.89;100.00;90787.06;5032273;28;20033;-64
2023/06/09 04:16:50;;;;;;;0.98;0.95;;;;;;;11.96;100.00;90786.56;5032094;28;20383;-64
2023/06/09 04:19:16;;;;;;;1.02;1.02;;;;;;;12.10;100.00;90792.47;5031974;28;20026;-67
2023/06/09 04:21:43;;;;;;;1.92;1.77;;;;;;;12.27;100.00;90791.59;5032150;28;20035;-65
2023/06/09 04:24:09;;;;;;;1.95;1.85;;;;;;;12.41;100.00;90796.72;5031868;28;20087;-66
2023/06/09 04:26:38;;;;;;;1.27;1.17;;;;;;;12.49;100.00;90794.00;5031900;28;20033;-67
2023/06/09 04:29:04;;;;;;;0.90;0.90;;;;;;;12.62;100.00;90792.19;5031957;28;20029;-64
2023/06/09 04:31:33;;;;;;;2.15;1.33;;;;;;;12.78;100.00;90795.88;5031771;28;20090;-64
2023/06/09 04:34:11;;;;;;;1.00;1.00;;;;;;;12.84;100.00;90797.25;5031689;28;20716;-65
2023/06/09 04:36:40;;;;;;;1.35;1.35;;;;;;;12.88;100.00;90792.81;5031576;28;20037;-64
2023/06/09 04:39:09;;;;;;;1.25;1.25;;;;;;;13.03;100.00;90801.34;5031500;28;20048;-65
2023/06/09 04:41:35;;;;;;;1.00;1.00;;;;;;;13.03;100.00;90801.34;5031625;28;20036;-64
2023/06/09 04:44:04;;;;;;;1.77;1.67;;;;;;;13.21;100.00;90796.66;5031476;28;20438;-65
2023/06/09 04:46:39;;;;;;;1.13;1.13;;;;;;;13.30;100.00;90798.16;5031531;28;20033;-65
2023/06/09 04:49:10;;;;;;;1.40;1.30;;;;;;;13.53;100.00;90800.47;5031287;28;20037;-65
2023/06/09 04:51:47;;;;;;;1.65;1.60;;;;;;;13.68;100.00;90802.53;5031291;28;20025;-65
2023/06/09 04:54:28;;;;;;;0.90;0.90;;;;;;;13.59;100.00;90804.53;5031472;28;20112;-64
2023/06/09 04:56:57;;;;;;;3.90;1.52;;;;;;;13.57;100.00;90807.53;5031392;28;20033;-65
2023/06/09 04:59:28;;;;;;;1.40;1.35;;;;;;;13.79;100.00;90809.81;5031327;28;20223;-64
2023/06/09 05:01:54;;;;;;;1.30;1.27;;;;;;;14.02;100.00;90802.16;5031155;28;20022;-65
2023/06/09 05:04:19;;;;;;;3.50;1.45;;;;;;;14.19;100.00;90803.84;5031304;28;20092;-64
2023/06/09 05:06:45;;;;;;;0.90;0.90;;;;;;;14.34;100.00;90805.09;5031209;28;20447;-65
2023/06/09 05:09:10;;;;;;;4.35;1.88;;;;;;;14.55;100.00;90813.84;5030796;28;20037;-65
2023/06/09 05:11:36;;;;;;;2.67;1.83;;;;;;;14.64;100.00;90806.47;5031151;28;20029;-65
2023/06/09 05:14:02;;;;;;;1.58;1.48;;;;;;;14.74;100.00;90802.56;5031382;28;20402;-65
2023/06/09 05:16:28;;;;;;;1.85;1.42;;;;;;;14.95;100.00;90805.09;5031026;28;20112;-65
2023/06/09 05:18:56;;;;;;;1.95;1.85;;;;;;;15.15;100.00;90800.72;5066498;28;20403;-65
2023/06/09 05:21:23;;;;;;;1.63;1.52;;;;;;;15.00;100.00;90804.09;5071024;28;20074;-65
2023/06/09 05:23:48;;;;;;;1.10;1.10;;;;;;;15.10;100.00;90801.72;5071099;28;20031;-66
2023/06/09 05:26:14;;;;;;;1.50;1.40;;;;;;;15.40;100.00;90793.38;5070552;28;20039;-66
2023/06/09 05:28:39;;;;;;;3.78;2.08;;;;;;;15.65;100.00;90791.41;5070615;28;20040;-66
2023/06/09 05:31:05;;;;;;;4.45;1.55;;;;;;;15.72;100.00;90787.00;5070777;28;20020;-65
2023/06/09 05:33:30;;;;;;;1.48;1.38;;;;;;;15.95;100.00;90789.91;5070701;28;20032;-65
2023/06/09 05:35:56;;;;;;;1.92;1.83;;;;;;;16.00;100.00;90784.28;5070689;28;20017;-66
2023/06/09 05:38:23;;;;;;;1.40;1.30;;;;;;;16.17;100.00;90780.50;5070502;28;20049;-65
2023/06/09 05:40:48;;;;;;;1.10;1.10;;;;;;;16.46;100.00;90785.44;5070890;28;20029;-65
2023/06/09 05:43:14;;;;;;;2.08;1.98;;;;;;;16.92;100.00;90776.91;5071025;28;20047;-65
2023/06/09 05:45:40;;;;;;;5.25;1.92;;;;;;;18.74;100.00;90784.63;5071604;28;20070;-66
2023/06/09 05:48:05;;;;;;;1.90;1.80;;;;;;;22.58;100.00;90783.78;5071380;28;20056;-66
2023/06/09 05:50:31;;;;;;;1.10;1.10;;;;;;;24.54;88.17;90780.72;5071560;28;20103;-65
2023/06/09 05:52:56;;;;;;;0.90;0.90;;;;;;;27.54;61.79;90782.44;5051863;28;20119;-66
2023/06/09 05:55:21;;;;;;;1.27;1.25;;;;;;;28.84;49.91;90780.31;5061254;28;20033;-68
2023/06/09 05:57:48;;;;;;;1.67;1.58;;;;;;;28.85;47.88;90798.28;5059748;28;20103;-67
2023/06/09 06:00:15;;;;;;;3.42;1.20;;;;;;;30.64;44.80;90795.47;5060038;28;20032;-67
2023/06/09 06:02:42;;;;;;;2.00;1.80;;;;;;;29.25;45.18;90800.97;5060924;28;20012;-68
2023/06/09 06:05:08;;;;;;;2.45;1.65;;;;;;;29.25;45.33;90803.69;5070488;28;20107;-68
2023/06/09 06:07:37;;;;;;;2.05;1.90;;;;;;;31.41;42.23;90798.31;5071188;28;20111;-68
2023/06/09 06:10:04;;;;;;;1.75;1.65;;;;;;;31.31;41.95;90799.41;5071565;28;20048;-66
2023/06/09 06:12:30;;;;;;;1.67;1.58;;;;;;;31.43;40.50;90801.41;5070775;28;20071;-68
2023/06/09 06:14:55;;;;;;;1.33;1.23;;;;;;;31.39;41.11;90795.22;5071565;28;20079;-68
2023/06/09 06:17:21;;;;;;;2.15;1.83;;;;;;;31.86;40.72;90798.81;5071182;28;20508;-67
2023/06/09 06:19:46;;;;;;;2.33;1.70;;;;;;;33.53;38.07;90788.50;5072125;28;20032;-68
2023/06/09 06:22:12;;;;;;;1.52;1.42;;;;;;;34.84;36.22;90804.31;5075117;28;20075;-68
2023/06/09 06:24:37;;;;;;;3.03;1.35;;;;;;;35.82;35.06;90791.13;5074983;28;20584;-69
2023/06/09 06:27:03;;;;;;;3.72;2.13;;;;;;;34.84;35.51;90794.03;5074688;28;20032;-67
2023/06/09 06:29:30;;;;;;;4.18;2.72;;;;;;;34.72;35.27;90792.22;5074837;28;20025;-68
2023/06/09 06:31:55;;;;;;;3.25;1.73;;;;;;;35.83;34.60;90789.91;5074891;28;20097;-68
2023/06/09 06:34:21;;;;;;;1.60;1.48;;;;;;;36.14;33.85;90781.31;5074790;28;20055;-69
2023/06/09 06:36:46;;;;;;;2.78;1.30;;;;;;;36.98;31.53;90797.59;5074251;28;20434;-69
2023/06/09 06:39:12;;;;;;;1.55;1.45;;;;;;;37.56;32.06;90793.31;5074527;28;20040;-69
2023/06/09 06:41:38;;;;;;;1.33;1.23;;;;;;;38.35;31.03;90793.22;5074821;28;20112;-69
2023/06/09 06:44:04;;;;;;;1.50;1.40;;;;;;;39.15;30.52;90796.44;5074999;28;20020;-69
2023/06/09 06:46:31;;;;;;;1.88;1.77;;;;;;;38.75;29.64;90788.13;5074773;28;20035;-68
2023/06/09 06:48:57;;;;;;;3.17;1.67;;;;;;;36.68;32.22;90787.69;5074176;28;20139;-68
2023/06/09 06:51:22;;;;;;;5.25;2.15;;;;;;;34.20;34.62;90785.75;5074636;28;20056;-68
2023/06/09 06:53:48;;;;;;;1.45;1.35;;;;;;;36.27;33.69;90785.34;5074567;28;20024;-68
2023/06/09 06:56:13;;;;;;;2.65;1.85;;;;;;;36.65;32.41;90791.41;5056126;28;20485;-69
2023/06/09 06:58:39;;;;;;;3.05;1.88;;;;;;;36.83;32.18;90788.50;5074005;28;20055;-69
2023/06/09 07:01:04;;;;;;;1.50;1.40;;;;;;;38.48;29.83;90789.31;5074151;28;20108;-68
2023/06/09 07:03:30;;;;;;;2.88;2.15;;;;;;;37.76;30.03;90785.06;5074434;28;20025;-68
2023/06/09 07:05:55;;;;;;;1.50;1.40;;;;;;;39.34;28.06;90782.94;5074430;28;20402;-68
2023/06/09 07:08:21;;;;;;;1.15;1.15;;;;;;;41.19;28.08;90781.25;5074010;28;20486;-68
2023/06/09 07:10:46;;;;;;;1.50;1.40;;;;;;;41.56;27.64;90776.22;5074275;28;20107;-69
2023/06/09 07:13:11;;;;;;;2.17;1.92;;;;;;;40.62;27.92;90780.28;5074116;28;20028;-68
2023/06/09 07:15:38;;;;;;;1.48;1.35;;;;;;;40.02;28.53;90784.25;5074177;28;20032;-68
2023/06/09 07:18:05;;;;;;;3.42;2.95;;;;;;;37.01;30.13;90787.53;5073732;28;20573;-69
2023/06/09 07:20:30;;;;;;;1.52;1.40;;;;;;;34.38;34.51;90779.47;5073952;28;20486;-68
2023/06/09 07:22:56;;;;;;;10.10;1.50;;;;;;;35.93;32.46;90778.34;5073921;28;20041;-68
2023/06/09 07:25:21;;;;;;;2.35;1.27;;;;;;;37.78;30.82;90781.03;5073740;28;20037;-68
2023/06/09 07:27:47;;;;;;;4.03;1.60;;;;;;;37.59;31.30;90777.69;5073754;28;20115;-68
2023/06/09 07:30:13;;;;;;;1.92;1.77;;;;;;;38.74;30.06;90776.25;5074115;28;20039;-68
2023/06/09 07:32:41;;;;;;;4.80;1.90;;;;;;;38.58;29.40;90772.00;5073645;28;20028;-68
2023/06/09 07:35:07;;;;;;;1.98;1.67;;;;;;;37.91;31.27;90787.03;5073536;28;20025;-68
2023/06/09 07:37:33;;;;;;;1.88;1.75;;;;;;;39.47;29.22;90780.53;5073427;28;20044;-68
2023/06/09 07:39:59;;;;;;;1.20;1.20;;;;;;;37.84;30.16;90779.09;5073722;28;20020;-68
2023/06/09 07:42:24;;;;;;;2.33;1.05;;;;;;;37.85;31.48;90786.16;5074151;28;20497;-68
2023/06/09 07:44:50;;;;;;;2.45;1.80;;;;;;;36.13;33.02;90776.97;5073456;28;20020;-68
2023/06/09 07:47:16;;;;;;;2.47;1.50;;;;;;;36.44;31.69;90779.38;5073232;28;20021;-67
2023/06/09 07:49:41;;;;;;;1.05;1.05;;;;;;;37.94;30.11;90789.59;5073561;28;20016;-68
2023/06/09 07:52:07;;;;;;;1.60;1.45;;;;;;;34.73;34.12;90779.94;5073545;28;20062;-67
2023/06/09 07:54:33;;;;;;;1.10;1.10;;;;;;;36.46;32.43;90783.25;5073536;28;20028;-68
2023/06/09 07:56:58;;;;;;;6.28;2.53;;;;;;;34.33;33.60;90765.50;5072956;28;20500;-68
2023/06/09 07:59:24;;;;;;;2.80;1.63;;;;;;;34.86;34.80;90767.94;5073154;28;20025;-67
2023/06/09 08:01:49;;;;;;;1.63;1.52;;;;;;;35.29;33.16;90767.53;5072986;28;20081;-67
2023/06/09 08:04:15;;;;;;;1.13;1.02;;;;;;;37.53;30.29;90772.03;5073418;28;20029;-68
2023/06/09 08:06:41;;;;;;;1.90;1.80;;;;;;;37.33;31.80;90764.41;5073189;28;20115;-68
2023/06/09 08:09:06;;;;;;;1.50;1.40;;;;;;;35.72;32.84;90769.06;5073047;28;20029;-68
2023/06/09 08:11:32;;;;;;;1.58;1.48;;;;;;;35.62;34.65;90761.25;5072927;28;20112;-67
2023/06/09 08:13:58;;;;;;;1.80;1.70;;;;;;;36.54;32.94;90764.22;5072861;28;20024;-67
2023/06/09 08:16:23;;;;;;;1.52;1.42;;;;;;;36.53;32.80;90765.47;5073196;28;20039;-68
2023/06/09 08:18:49;;;;;;;1.65;1.55;;;;;;;36.90;31.51;90774.25;5072824;28;20028;-68
2023/06/09 08:21:14;;;;;;;3.10;1.08;;;;;;;37.35;31.53;90766.72;5072898;28;20527;-68
2023/06/09 08:23:46;;;;;;;1.10;1.05;;;;;;;36.00;32.73;90772.47;5072439;28;20021;-67
2023/06/09 08:26:11;;;;;;;5.63;2.00;;;;;;;37.38;30.47;90766.50;5072460;28;20037;-68
2023/06/09 08:28:38;;;;;;;2.15;1.25;;;;;;;35.01;33.27;90758.53;5072410;28;20025;-67
2023/06/09 08:31:03;;;;;;;1.58;1.48;;;;;;;33.81;35.85;90759.00;5072401;28;20074;-66
2023/06/09 08:33:33;;;;;;;1.10;1.10;;;;;;;34.40;34.71;90763.25;5072731;28;20060;-66
2023/06/09 08:36:03;;;;;;;1.98;1.10;;;;;;;36.07;31.95;90762.25;5072540;28;20020;-68
2023/06/09 08:38:32;;;;;;;1.13;1.02;;;;;;;33.76;35.75;90757.59;5071878;28;20044;-67
2023/06/09 08:41:04;;;;;;;0.82;0.82;;;;;;;35.22;32.75;90756.03;5072435;28;20030;-67
2023/06/09 08:43:30;;;;;;;1.30;1.30;;;;;;;35.93;33.03;90755.41;5067657;28;20406;-68
2023/06/09 08:45:57;;;;;;;6.57;1.52;;;;;;;33.56;35.85;90755.25;5072004;28;20032;-66
2023/06/09 08:48:26;;;;;;;0.90;0.90;;;;;;;34.04;36.27;90750.16;5072176;28;20021;-66
2023/06/09 08:50:52;;;;;;;0.93;0.93;;;;;;;35.18;33.95;90753.41;5071698;28;20074;-68
2023/06/09 08:53:19;;;;;;;1.60;1.20;;;;;;;36.83;32.77;90752.44;5072282;28;20081;-68
2023/06/09 08:55:44;;;;;;;1.35;1.25;;;;;;;36.53;31.14;90746.84;5072026;28;20036;-69
2023/06/09 08:58:12;;;;;;;4.20;2.05;;;;;;;37.68;30.76;90745.00;5071932;28;20023;-69
2023/06/09 09:00:38;;;;;;;1.20;1.10;;;;;;;39.50;30.16;90739.78;5071951;28;20495;-68
2023/06/09 09:03:03;;;;;;;3.80;1.40;;;;;;;40.53;28.64;90738.66;5071808;28;20070;-69
2023/06/09 09:05:30;;;;;;;1.52;1.05;;;;;;;41.23;26.58;90737.84;5071586;28;20024;-68
2023/06/09 09:07:57;;;;;;;2.05;1.40;;;;;;;41.11;26.23;90735.53;5071978;28;20027;-69
2023/06/09 09:10:22;;;;;;;1.25;1.15;;;;;;;36.58;30.28;90729.53;5071794;28;20490;-68
2023/06/09 09:12:50;;;;;;;1.05;0.98;;;;;;;38.04;28.89;90721.56;5071770;28;20032;-69
2023/06/09 09:15:16;;;;;;;1.45;1.35;;;;;;;37.74;28.17;90720.91;5071816;28;20043;-69
2023/06/09 09:17:43;;;;;;;1.08;0.98;;;;;;;37.52;29.42;90726.09;5071614;28;20029;-70
2023/06/09 09:20:08;;;;;;;1.17;1.17;;;;;;;37.04;30.07;90725.56;5071379;28;20036;-69
2023/06/09 09:22:50;;;;;;;1.05;0.98;;;;;;;38.93;28.65;90726.63;5071729;28;20032;-68
2023/06/09 09:25:22;;;;;;;4.35;1.00;;;;;;;38.85;28.67;90720.75;5071946;28;20039;-66
2023/06/09 09:28:12;;;;;;;1.03;1.03;;;;;;;35.96;30.50;90726.78;5070922;28;20043;-66
2023/06/09 09:30:48;;;;;;;1.55;1.45;;;;;;;33.10;33.45;90712.19;5063893;28;20037;-67
2023/06/09 09:33:18;;;;;;;1.20;1.17;;;;;;;33.29;34.25;90719.28;5053167;28;20056;-67
2023/06/09 09:35:46;;;;;;;0.82;0.82;;;;;;;37.67;28.93;90710.16;5071229;28;20025;-66
2023/06/09 09:38:16;;;;;;;1.40;0.82;;;;;;;38.41;28.55;90709.91;5071102;28;20044;-66
2023/06/09 09:40:47;;;;;;;1.70;1.05;;;;;;;39.60;27.18;90710.50;5071287;28;20072;-67
2023/06/09 09:43:13;;;;;;;1.23;1.08;;;;;;;36.49;30.03;90713.00;5071810;28;20111;-67
2023/06/09 09:45:39;;;;;;;1.08;1.08;;;;;;;34.50;32.61;90703.97;5071552;28;20118;-67
2023/06/09 09:48:13;;;;;;;0.73;0.73;;;;;;;35.30;32.38;90699.13;5071444;28;20036;-67
2023/06/09 09:50:41;;;;;;;0.95;0.95;;;;;;;35.52;31.90;90707.97;5071523;28;20025;-67
2023/06/09 09:53:07;;;;;;;1.73;1.63;;;;;;;36.20;30.36;90710.16;5071623;28;20127;-67
2023/06/09 09:55:35;;;;;;;0.90;0.90;;;;;;;35.04;30.85;90702.34;5075106;28;20537;-67
2023/06/09 09:58:06;;;;;;;0.90;0.90;;;;;;;34.66;31.82;90697.34;5074894;28;20028;-67
2023/06/09 10:00:35;;;;;;;1.20;1.10;;;;;;;35.80;32.04;90703.00;5075088;28;20040;-67
2023/06/09 10:03:08;;;;;;;1.15;1.15;;;;;;;37.98;28.39;90706.06;5075073;28;20093;-69
2023/06/09 10:05:39;;;;;;;1.63;1.52;;;;;;;38.89;27.65;90704.59;5075094;28;20033;-68
2023/06/09 10:08:06;;;;;;;12.25;1.38;;;;;;;38.00;27.52;90707.09;5075131;28;20038;-68
2023/06/09 10:10:32;;;;;;;1.02;1.02;;;;;;;37.63;28.56;90708.84;5056928;28;20366;-68
2023/06/09 10:13:00;;;;;;;2.67;1.30;;;;;;;38.79;28.20;90710.81;5074898;28;20037;-68
2023/06/09 10:15:26;;;;;;;2.22;1.25;;;;;;;39.73;26.27;90699.72;5075031;28;20481;-68
2023/06/09 10:17:53;;;;;;;1.00;1.00;;;;;;;39.87;27.10;90703.59;5074372;28;20039;-69
2023/06/09 10:20:19;;;;;;;0.85;0.80;;;;;;;38.17;28.35;90701.75;5074857;28;20482;-68
2023/06/09 10:22:46;;;;;;;1.00;1.00;;;;;;;35.88;29.86;90703.47;5074635;28;20554;-68
2023/06/09 10:25:12;;;;;;;1.08;1.02;;;;;;;35.68;30.45;90698.50;5074706;28;20032;-67
2023/06/09 10:27:38;;;;;;;1.10;1.00;;;;;;;36.72;29.77;90700.31;5074520;28;20525;-67
2023/06/09 10:30:05;;;;;;;1.00;0.90;;;;;;;36.56;29.51;90706.31;5074604;28;20028;-67
2023/06/09 10:32:35;;;;;;;1.52;1.42;;;;;;;37.92;29.33;90700.44;5074834;28;20036;-67
2023/06/09 10:35:03;;;;;;;1.10;1.00;;;;;;;38.35;29.46;90701.50;5074146;28;20032;-67
2023/06/09 10:37:33;;;;;;;8.90;1.90;;;;;;;37.76;30.21;90693.41;5201112;22;21151;-69
2023/06/09 10:40:30;;;;;;;10.90;1.70;;;;;;;37.08;31.27;90701.94;5053579;28;20113;-66
2023/06/09 10:42:58;;;;;;;0.98;0.98;;;;;;;34.15;34.34;90700.75;5054508;28;20104;-66
2023/06/09 10:45:48;;;;;;;1.35;1.25;;;;;;;31.11;38.89;90690.44;5054600;28;20041;-66
2023/06/09 10:48:14;;;;;;;1.58;1.48;;;;;;;28.76;46.58;90694.06;5053925;28;20033;-65
2023/06/09 10:50:39;;;;;;;4.75;2.63;;;;;;;29.69;45.70;90687.13;5054422;28;20506;-65
2023/06/09 10:53:15;;;;;;;1.10;1.10;;;;;;;29.62;45.16;90690.03;5054259;28;20025;-66
2023/06/09 10:55:40;;;;;;;1.05;0.90;;;;;;;31.35;41.73;90690.88;5054008;28;20029;-66
2023/06/09 10:58:36;;;;;;;4.85;1.58;;;;;;;33.03;40.70;90686.44;5054099;28;20029;-66
2023/06/09 11:01:08;;;;;;;1.35;1.30;;;;;;;33.68;38.62;90683.84;5054133;28;20108;-66
2023/06/09 11:03:34;;;;;;;1.75;0.90;;;;;;;34.01;36.55;90690.34;5053689;28;20061;-65
2023/06/09 11:06:00;;;;;;;1.42;1.30;;;;;;;35.75;35.20;90681.53;5053700;28;20453;-66
2023/06/09 11:08:26;;;;;;;1.48;1.40;;;;;;;36.27;35.61;90685.59;5053210;28;20117;-66
2023/06/09 11:10:51;;;;;;;2.50;2.10;;;;;;;35.49;36.16;90674.91;5053814;28;20028;-66
2023/06/09 11:13:38;;;;;;;3.45;2.28;;;;;;;33.81;39.21;90667.94;5054042;28;20033;-66
2023/06/09 11:16:04;;;;;;;1.50;1.40;;;;;;;31.49;42.47;90673.13;5054054;28;20406;-65
2023/06/09 11:18:30;;;;;;;2.53;1.88;;;;;;;32.36;41.29;90672.47;5053216;28;20029;-66
2023/06/09 11:21:08;;;;;;;5.93;1.13;;;;;;;32.80;39.75;90667.63;5053773;28;20033;-66
2023/06/09 11:23:57;;;;;;;2.03;1.20;;;;;;;34.15;36.61;90658.59;5053818;28;20494;-67
2023/06/09 11:26:23;;;;;;;1.00;0.98;;;;;;;31.94;39.89;90667.28;5053339;28;20028;-67
2023/06/09 11:28:50;;;;;;;2.08;1.42;;;;;;;28.90;43.81;90660.91;5053605;28;20025;-66
2023/06/09 11:31:15;;;;;;;1.45;1.35;;;;;;;27.62;46.31;90660.88;5053667;28;20029;-66